sensor_id;sensor_type;location;lat;lon;timestamp;temperature;humidity
19999;DHT22;10160;50.926;4.374;2023-06-26T00:00:28;23.90;99.90
19999;DHT22;10160;50.926;4.374;2023-06-26T00:02:54;23.80;99.90
19999;DHT22;10160;50.926;4.374;2023-06-26T00:05:19;23.80;99.90
19999;DHT22;10160;50.926;4.374;2023-06-26T00:07:45;23.80;99.90
19999;DHT22;10160;50.926;4.374;2023-06-26T00:10:11;23.80;99.90
19999;DHT22;10160;50.926;4.374;2023-06-26T00:12:36;23.80;99.90
19999;DHT22;10160;50.926;4.374;2023-06-26T00:15:02;23.80;99.90
19999;DHT22;10160;50.926;4.374;2023-06-26T00:17:28;23.70;99.90
19999;DHT22;10160;50.926;4.374;2023-06-26T00:19:54;23.60;99.90
19999;DHT22;10160;50.926;4.374;2023-06-26T00:22:21;23.50;99.90
19999;DHT22;10160;50.926;4.374;2023-06-26T00:24:47;23.50;99.90
19999;DHT22;10160;50.926;4.374;2023-06-26T00:27:12;23.20;99.90
19999;DHT22;10160;50.926;4.374;2023-06-26T00:29:38;23.20;99.90
19999;DHT22;10160;50.926;4.374;2023-06-26T00:32:04;23.10;99.90
19999;DHT22;10160;50.926;4.374;2023-06-26T00:34:30;23.10;99.90
19999;DHT22;10160;50.926;4.374;2023-06-26T00:36:56;22.90;99.90
19999;DHT22;10160;50.926;4.374;2023-06-26T00:39:22;22.70;99.90
19999;DHT22;10160;50.926;4.374;2023-06-26T00:41:51;22.60;99.90
19999;DHT22;10160;50.926;4.374;2023-06-26T00:44:19;22.50;99.90
19999;DHT22;10160;50.926;4.374;2023-06-26T00:46:45;22.40;99.90
19999;DHT22;10160;50.926;4.374;2023-06-26T00:49:11;22.40;99.90
19999;DHT22;10160;50.926;4.374;2023-06-26T00:51:38;22.40;99.90
19999;DHT22;10160;50.926;4.374;2023-06-26T00:54:03;22.30;99.90
19999;DHT22;10160;50.926;4.374;2023-06-26T00:56:31;22.20;99.90
19999;DHT22;10160;50.926;4.374;2023-06-26T00:58:57;22.20;99.90
19999;DHT22;10160;50.926;4.374;2023-06-26T01:01:23;22.20;99.90
19999;DHT22;10160;50.926;4.374;2023-06-26T01:03:51;22.00;99.90
19999;DHT22;10160;50.926;4.374;2023-06-26T01:06:20;21.90;99.90
19999;DHT22;10160;50.926;4.374;2023-06-26T01:08:45;21.90;99.90
19999;DHT22;10160;50.926;4.374;2023-06-26T01:11:12;22.00;99.90
19999;DHT22;10160;50.926;4.374;2023-06-26T01:13:42;21.90;99.90
19999;DHT22;10160;50.926;4.374;2023-06-26T01:16:11;21.80;99.90
19999;DHT22;10160;50.926;4.374;2023-06-26T01:18:40;21.90;99.90
19999;DHT22;10160;50.926;4.374;2023-06-26T01:21:08;21.80;99.90
19999;DHT22;10160;50.926;4.374;2023-06-26T01:26:35;21.80;99.90
19999;DHT22;10160;50.926;4.374;2023-06-26T01:29:03;21.70;99.90
19999;DHT22;10160;50.926;4.374;2023-06-26T01:31:31;21.70;99.90
19999;DHT22;10160;50.926;4.374;2023-06-26T01:33:58;21.70;99.90
19999;DHT22;10160;50.926;4.374;2023-06-26T01:36:24;21.80;99.90
19999;DHT22;10160;50.926;4.374;2023-06-26T01:38:50;21.90;99.90
19999;DHT22;10160;50.926;4.374;2023-06-26T01:41:17;22.00;99.90
19999;DHT22;10160;50.926;4.374;2023-06-26T01:46:47;21.90;99.90
19999;DHT22;10160;50.926;4.374;2023-06-26T01:49:28;22.00;99.90
19999;DHT22;10160;50.926;4.374;2023-06-26T01:54:31;21.60;99.90
19999;DHT22;10160;50.926;4.374;2023-06-26T01:56:59;21.60;99.90
19999;DHT22;10160;50.926;4.374;2023-06-26T01:59:26;21.40;99.90
19999;DHT22;10160;50.926;4.374;2023-06-26T02:01:54;21.60;99.90
19999;DHT22;10160;50.926;4.374;2023-06-26T02:04:20;21.50;99.90
19999;DHT22;10160;50.926;4.374;2023-06-26T02:06:45;21.40;99.90
19999;DHT22;10160;50.926;4.374;2023-06-26T02:09:11;21.40;99.90
19999;DHT22;10160;50.926;4.374;2023-06-26T02:11:37;21.30;99.90
19999;DHT22;10160;50.926;4.374;2023-06-26T02:14:03;21.20;99.90
19999;DHT22;10160;50.926;4.374;2023-06-26T02:16:29;21.20;99.90
19999;DHT22;10160;50.926;4.374;2023-06-26T02:18:58;21.30;99.90
19999;DHT22;10160;50.926;4.374;2023-06-26T02:21:23;21.30;99.90
19999;DHT22;10160;50.926;4.374;2023-06-26T02:23:49;21.30;99.90
19999;DHT22;10160;50.926;4.374;2023-06-26T02:26:15;21.20;99.90
19999;DHT22;10160;50.926;4.374;2023-06-26T02:28:40;21.10;99.90
19999;DHT22;10160;50.926;4.374;2023-06-26T02:31:06;21.30;99.90
19999;DHT22;10160;50.926;4.374;2023-06-26T02:33:31;21.20;99.90
19999;DHT22;10160;50.926;4.374;2023-06-26T02:35:57;21.20;99.90
19999;DHT22;10160;50.926;4.374;2023-06-26T02:38:23;21.20;99.90
19999;DHT22;10160;50.926;4.374;2023-06-26T02:40:49;21.30;99.90
19999;DHT22;10160;50.926;4.374;2023-06-26T02:43:14;21.20;99.90
19999;DHT22;10160;50.926;4.374;2023-06-26T02:45:40;21.20;99.90
19999;DHT22;10160;50.926;4.374;2023-06-26T02:48:05;21.30;99.90
19999;DHT22;10160;50.926;4.374;2023-06-26T02:50:31;21.20;99.90
19999;DHT22;10160;50.926;4.374;2023-06-26T02:52:57;21.10;99.90
19999;DHT22;10160;50.926;4.374;2023-06-26T02:55:22;21.00;99.90
19999;DHT22;10160;50.926;4.374;2023-06-26T02:57:49;21.00;99.90
19999;DHT22;10160;50.926;4.374;2023-06-26T03:00:15;20.80;99.90
19999;DHT22;10160;50.926;4.374;2023-06-26T03:02:41;20.80;99.90
19999;DHT22;10160;50.926;4.374;2023-06-26T03:05:06;20.80;99.90
19999;DHT22;10160;50.926;4.374;2023-06-26T03:07:32;20.70;99.90
19999;DHT22;10160;50.926;4.374;2023-06-26T03:09:58;20.60;99.90
19999;DHT22;10160;50.926;4.374;2023-06-26T03:12:25;20.60;99.90
19999;DHT22;10160;50.926;4.374;2023-06-26T03:14:50;20.60;99.90
19999;DHT22;10160;50.926;4.374;2023-06-26T03:17:16;20.60;99.90
19999;DHT22;10160;50.926;4.374;2023-06-26T03:19:42;20.60;99.90
19999;DHT22;10160;50.926;4.374;2023-06-26T03:22:10;20.70;99.90
19999;DHT22;10160;50.926;4.374;2023-06-26T03:24:36;20.60;99.90
19999;DHT22;10160;50.926;4.374;2023-06-26T03:27:02;20.40;99.90
19999;DHT22;10160;50.926;4.374;2023-06-26T03:29:31;20.40;99.90
19999;DHT22;10160;50.926;4.374;2023-06-26T03:31:56;20.40;99.90
19999;DHT22;10160;50.926;4.374;2023-06-26T03:34:22;20.30;99.90
19999;DHT22;10160;50.926;4.374;2023-06-26T03:36:48;20.20;99.90
19999;DHT22;10160;50.926;4.374;2023-06-26T03:39:13;20.10;99.90
19999;DHT22;10160;50.926;4.374;2023-06-26T03:41:39;20.30;99.90
19999;DHT22;10160;50.926;4.374;2023-06-26T03:44:04;20.20;99.90
19999;DHT22;10160;50.926;4.374;2023-06-26T03:46:30;20.20;99.90
19999;DHT22;10160;50.926;4.374;2023-06-26T03:48:56;20.30;99.90
19999;DHT22;10160;50.926;4.374;2023-06-26T03:51:21;20.00;99.90
19999;DHT22;10160;50.926;4.374;2023-06-26T03:53:47;19.90;99.90
19999;DHT22;10160;50.926;4.374;2023-06-26T03:56:13;19.90;99.90
19999;DHT22;10160;50.926;4.374;2023-06-26T03:58:39;20.00;99.90
19999;DHT22;10160;50.926;4.374;2023-06-26T04:01:08;20.00;99.90
19999;DHT22;10160;50.926;4.374;2023-06-26T04:03:34;19.90;99.90
19999;DHT22;10160;50.926;4.374;2023-06-26T04:05:59;19.90;99.90
19999;DHT22;10160;50.926;4.374;2023-06-26T04:08:25;19.70;99.90
19999;DHT22;10160;50.926;4.374;2023-06-26T04:10:54;19.70;99.90
19999;DHT22;10160;50.926;4.374;2023-06-26T04:13:25;19.70;99.90
19999;DHT22;10160;50.926;4.374;2023-06-26T04:15:50;19.90;99.90
19999;DHT22;10160;50.926;4.374;2023-06-26T04:18:16;19.80;99.90
19999;DHT22;10160;50.926;4.374;2023-06-26T04:21:08;19.80;99.90
19999;DHT22;10160;50.926;4.374;2023-06-26T04:23:34;19.70;99.90
19999;DHT22;10160;50.926;4.374;2023-06-26T04:26:01;19.60;99.90
19999;DHT22;10160;50.926;4.374;2023-06-26T04:28:28;19.60;99.90
19999;DHT22;10160;50.926;4.374;2023-06-26T04:30:54;19.50;99.90
19999;DHT22;10160;50.926;4.374;2023-06-26T04:33:19;19.60;99.90
19999;DHT22;10160;50.926;4.374;2023-06-26T04:35:45;19.60;99.90
19999;DHT22;10160;50.926;4.374;2023-06-26T04:38:14;19.70;99.90
19999;DHT22;10160;50.926;4.374;2023-06-26T04:40:45;19.70;99.90
19999;DHT22;10160;50.926;4.374;2023-06-26T04:43:11;19.70;99.90
19999;DHT22;10160;50.926;4.374;2023-06-26T04:45:37;19.70;99.90
19999;DHT22;10160;50.926;4.374;2023-06-26T04:48:03;19.60;99.90
19999;DHT22;10160;50.926;4.374;2023-06-26T04:50:29;19.70;99.90
19999;DHT22;10160;50.926;4.374;2023-06-26T04:52:55;19.70;99.90
19999;DHT22;10160;50.926;4.374;2023-06-26T04:55:24;19.80;99.90
19999;DHT22;10160;50.926;4.374;2023-06-26T04:57:50;19.80;99.90
19999;DHT22;10160;50.926;4.374;2023-06-26T05:00:17;19.90;99.90
19999;DHT22;10160;50.926;4.374;2023-06-26T05:02:43;19.80;99.90
19999;DHT22;10160;50.926;4.374;2023-06-26T05:05:08;19.80;99.90
19999;DHT22;10160;50.926;4.374;2023-06-26T05:07:35;19.70;99.90
19999;DHT22;10160;50.926;4.374;2023-06-26T05:10:01;19.80;99.90
19999;DHT22;10160;50.926;4.374;2023-06-26T05:12:27;19.90;99.90
19999;DHT22;10160;50.926;4.374;2023-06-26T05:14:55;19.70;99.90
19999;DHT22;10160;50.926;4.374;2023-06-26T05:17:21;19.60;99.90
19999;DHT22;10160;50.926;4.374;2023-06-26T05:19:46;19.60;99.90
19999;DHT22;10160;50.926;4.374;2023-06-26T05:22:13;19.80;99.90
19999;DHT22;10160;50.926;4.374;2023-06-26T05:24:39;19.80;99.90
19999;DHT22;10160;50.926;4.374;2023-06-26T05:27:06;19.70;99.90
19999;DHT22;10160;50.926;4.374;2023-06-26T05:29:32;19.80;99.90
19999;DHT22;10160;50.926;4.374;2023-06-26T05:31:59;19.90;99.90
19999;DHT22;10160;50.926;4.374;2023-06-26T05:34:25;19.90;99.90
19999;DHT22;10160;50.926;4.374;2023-06-26T05:36:57;20.00;99.90
19999;DHT22;10160;50.926;4.374;2023-06-26T05:39:24;19.90;99.90
19999;DHT22;10160;50.926;4.374;2023-06-26T05:41:50;19.90;99.90
19999;DHT22;10160;50.926;4.374;2023-06-26T05:44:20;19.90;99.90
19999;DHT22;10160;50.926;4.374;2023-06-26T05:46:46;19.80;99.90
19999;DHT22;10160;50.926;4.374;2023-06-26T05:49:11;19.70;99.90
19999;DHT22;10160;50.926;4.374;2023-06-26T05:51:37;19.80;99.90
19999;DHT22;10160;50.926;4.374;2023-06-26T05:54:03;19.70;99.90
19999;DHT22;10160;50.926;4.374;2023-06-26T05:56:30;19.90;99.90
19999;DHT22;10160;50.926;4.374;2023-06-26T05:58:57;19.90;99.90
19999;DHT22;10160;50.926;4.374;2023-06-26T06:01:22;19.90;99.90
19999;DHT22;10160;50.926;4.374;2023-06-26T06:03:49;19.90;99.90
19999;DHT22;10160;50.926;4.374;2023-06-26T06:06:15;20.00;99.90
19999;DHT22;10160;50.926;4.374;2023-06-26T06:08:41;20.00;99.90
19999;DHT22;10160;50.926;4.374;2023-06-26T06:11:07;20.10;99.90
19999;DHT22;10160;50.926;4.374;2023-06-26T06:13:33;20.30;99.90
19999;DHT22;10160;50.926;4.374;2023-06-26T06:15:59;20.40;99.90
19999;DHT22;10160;50.926;4.374;2023-06-26T06:18:24;20.30;99.90
19999;DHT22;10160;50.926;4.374;2023-06-26T06:20:50;20.40;99.90
19999;DHT22;10160;50.926;4.374;2023-06-26T06:23:15;20.40;99.90
19999;DHT22;10160;50.926;4.374;2023-06-26T06:25:41;20.60;99.90
19999;DHT22;10160;50.926;4.374;2023-06-26T06:28:07;20.50;99.90
19999;DHT22;10160;50.926;4.374;2023-06-26T06:30:32;20.50;99.90
19999;DHT22;10160;50.926;4.374;2023-06-26T06:32:58;20.40;99.90
19999;DHT22;10160;50.926;4.374;2023-06-26T06:35:24;20.50;99.90
19999;DHT22;10160;50.926;4.374;2023-06-26T06:37:50;20.50;99.90
19999;DHT22;10160;50.926;4.374;2023-06-26T06:40:15;20.50;99.90
19999;DHT22;10160;50.926;4.374;2023-06-26T06:42:41;20.60;99.90
19999;DHT22;10160;50.926;4.374;2023-06-26T06:45:07;20.60;99.90
19999;DHT22;10160;50.926;4.374;2023-06-26T06:47:33;20.70;99.90
19999;DHT22;10160;50.926;4.374;2023-06-26T06:50:00;20.50;99.90
19999;DHT22;10160;50.926;4.374;2023-06-26T06:52:39;20.50;99.90
19999;DHT22;10160;50.926;4.374;2023-06-26T06:55:06;20.70;99.90
19999;DHT22;10160;50.926;4.374;2023-06-26T06:57:37;20.50;99.90
19999;DHT22;10160;50.926;4.374;2023-06-26T07:00:11;20.40;99.90
19999;DHT22;10160;50.926;4.374;2023-06-26T07:02:38;20.50;99.90
19999;DHT22;10160;50.926;4.374;2023-06-26T07:05:04;20.60;99.90
19999;DHT22;10160;50.926;4.374;2023-06-26T07:07:32;20.60;99.90
19999;DHT22;10160;50.926;4.374;2023-06-26T07:09:59;20.50;99.90
19999;DHT22;10160;50.926;4.374;2023-06-26T07:12:25;20.40;99.90
19999;DHT22;10160;50.926;4.374;2023-06-26T07:14:51;20.40;99.90
19999;DHT22;10160;50.926;4.374;2023-06-26T07:17:17;20.40;99.90
19999;DHT22;10160;50.926;4.374;2023-06-26T07:19:42;20.40;99.90
19999;DHT22;10160;50.926;4.374;2023-06-26T07:22:08;20.60;99.90
19999;DHT22;10160;50.926;4.374;2023-06-26T07:24:33;20.80;99.90
19999;DHT22;10160;50.926;4.374;2023-06-26T07:27:00;20.80;99.90
19999;DHT22;10160;50.926;4.374;2023-06-26T07:29:26;20.90;99.90
19999;DHT22;10160;50.926;4.374;2023-06-26T07:31:54;20.70;99.90
19999;DHT22;10160;50.926;4.374;2023-06-26T07:34:20;20.80;99.90
19999;DHT22;10160;50.926;4.374;2023-06-26T07:36:46;20.70;99.90
19999;DHT22;10160;50.926;4.374;2023-06-26T07:39:11;20.80;99.90
19999;DHT22;10160;50.926;4.374;2023-06-26T07:41:37;20.80;99.90
19999;DHT22;10160;50.926;4.374;2023-06-26T07:44:03;20.90;99.90
19999;DHT22;10160;50.926;4.374;2023-06-26T07:46:28;21.00;99.90
19999;DHT22;10160;50.926;4.374;2023-06-26T07:48:54;21.20;99.90
19999;DHT22;10160;50.926;4.374;2023-06-26T07:51:20;21.20;99.90
19999;DHT22;10160;50.926;4.374;2023-06-26T07:53:46;21.40;99.90
19999;DHT22;10160;50.926;4.374;2023-06-26T07:56:12;21.40;99.90
19999;DHT22;10160;50.926;4.374;2023-06-26T07:58:37;21.20;99.90
19999;DHT22;10160;50.926;4.374;2023-06-26T08:01:05;21.10;99.90
19999;DHT22;10160;50.926;4.374;2023-06-26T08:03:31;21.20;99.90
19999;DHT22;10160;50.926;4.374;2023-06-26T08:05:57;21.10;99.90
19999;DHT22;10160;50.926;4.374;2023-06-26T08:08:22;21.30;99.90
19999;DHT22;10160;50.926;4.374;2023-06-26T08:10:48;21.50;99.90
19999;DHT22;10160;50.926;4.374;2023-06-26T08:13:14;21.70;99.90
19999;DHT22;10160;50.926;4.374;2023-06-26T08:15:39;21.60;99.90
19999;DHT22;10160;50.926;4.374;2023-06-26T08:18:05;21.40;99.90
19999;DHT22;10160;50.926;4.374;2023-06-26T08:20:31;21.40;99.90
19999;DHT22;10160;50.926;4.374;2023-06-26T08:22:56;21.70;99.90
19999;DHT22;10160;50.926;4.374;2023-06-26T08:25:22;21.70;99.90
19999;DHT22;10160;50.926;4.374;2023-06-26T08:27:48;22.00;99.90
19999;DHT22;10160;50.926;4.374;2023-06-26T08:30:16;22.10;99.90
19999;DHT22;10160;50.926;4.374;2023-06-26T08:32:42;22.20;99.90
19999;DHT22;10160;50.926;4.374;2023-06-26T08:35:07;22.40;99.90
19999;DHT22;10160;50.926;4.374;2023-06-26T08:37:35;22.40;99.90
19999;DHT22;10160;50.926;4.374;2023-06-26T08:40:01;22.50;99.90
19999;DHT22;10160;50.926;4.374;2023-06-26T08:42:27;22.70;99.90
19999;DHT22;10160;50.926;4.374;2023-06-26T08:44:53;22.70;99.90
19999;DHT22;10160;50.926;4.374;2023-06-26T08:47:19;22.80;99.90
19999;DHT22;10160;50.926;4.374;2023-06-26T08:50:13;23.00;99.90
19999;DHT22;10160;50.926;4.374;2023-06-26T08:53:21;22.80;99.90
19999;DHT22;10160;50.926;4.374;2023-06-26T08:55:43;22.60;99.90
19999;DHT22;10160;50.926;4.374;2023-06-26T08:58:10;22.50;99.90
19999;DHT22;10160;50.926;4.374;2023-06-26T09:00:38;22.80;99.90
19999;DHT22;10160;50.926;4.374;2023-06-26T09:03:04;23.00;99.90
19999;DHT22;10160;50.926;4.374;2023-06-26T09:05:30;23.10;99.90
19999;DHT22;10160;50.926;4.374;2023-06-26T09:07:57;22.90;99.90
19999;DHT22;10160;50.926;4.374;2023-06-26T09:10:24;22.90;99.90
19999;DHT22;10160;50.926;4.374;2023-06-26T09:12:50;22.80;99.90
19999;DHT22;10160;50.926;4.374;2023-06-26T09:15:16;22.60;99.90
19999;DHT22;10160;50.926;4.374;2023-06-26T09:17:44;22.70;99.90
19999;DHT22;10160;50.926;4.374;2023-06-26T09:20:10;22.90;99.90
19999;DHT22;10160;50.926;4.374;2023-06-26T09:22:37;22.60;99.90
19999;DHT22;10160;50.926;4.374;2023-06-26T09:25:06;22.70;99.90
19999;DHT22;10160;50.926;4.374;2023-06-26T09:27:33;22.70;99.90
19999;DHT22;10160;50.926;4.374;2023-06-26T09:29:59;22.90;99.90
19999;DHT22;10160;50.926;4.374;2023-06-26T09:32:25;23.00;99.90
19999;DHT22;10160;50.926;4.374;2023-06-26T09:34:53;23.20;99.90
19999;DHT22;10160;50.926;4.374;2023-06-26T09:37:21;23.10;99.90
19999;DHT22;10160;50.926;4.374;2023-06-26T09:39:48;23.10;99.90
19999;DHT22;10160;50.926;4.374;2023-06-26T09:42:14;23.20;99.90
19999;DHT22;10160;50.926;4.374;2023-06-26T09:44:47;23.40;99.90
19999;DHT22;10160;50.926;4.374;2023-06-26T09:47:16;23.30;99.90
19999;DHT22;10160;50.926;4.374;2023-06-26T09:49:42;23.30;99.90
19999;DHT22;10160;50.926;4.374;2023-06-26T09:52:09;23.30;99.90
19999;DHT22;10160;50.926;4.374;2023-06-26T09:54:35;23.00;99.90
19999;DHT22;10160;50.926;4.374;2023-06-26T09:57:09;23.30;99.90
19999;DHT22;10160;50.926;4.374;2023-06-26T09:59:35;23.40;99.90
19999;DHT22;10160;50.926;4.374;2023-06-26T10:02:01;23.40;99.90
19999;DHT22;10160;50.926;4.374;2023-06-26T10:04:27;23.60;99.90
19999;DHT22;10160;50.926;4.374;2023-06-26T10:06:56;23.80;99.90
19999;DHT22;10160;50.926;4.374;2023-06-26T10:09:23;24.20;99.90
19999;DHT22;10160;50.926;4.374;2023-06-26T10:11:58;24.50;99.90
19999;DHT22;10160;50.926;4.374;2023-06-26T10:14:27;24.50;99.90
19999;DHT22;10160;50.926;4.374;2023-06-26T10:17:00;24.20;99.90
19999;DHT22;10160;50.926;4.374;2023-06-26T10:19:27;24.30;99.90
19999;DHT22;10160;50.926;4.374;2023-06-26T10:21:54;24.40;99.90
19999;DHT22;10160;50.926;4.374;2023-06-26T10:24:23;24.50;99.90
19999;DHT22;10160;50.926;4.374;2023-06-26T10:26:52;24.70;99.90
19999;DHT22;10160;50.926;4.374;2023-06-26T10:29:22;24.40;99.90
19999;DHT22;10160;50.926;4.374;2023-06-26T10:31:51;24.20;99.90
19999;DHT22;10160;50.926;4.374;2023-06-26T10:34:18;24.10;99.90
19999;DHT22;10160;50.926;4.374;2023-06-26T10:36:44;24.40;99.90
19999;DHT22;10160;50.926;4.374;2023-06-26T10:39:15;24.80;99.90
19999;DHT22;10160;50.926;4.374;2023-06-26T10:41:42;25.00;99.90
19999;DHT22;10160;50.926;4.374;2023-06-26T10:44:12;25.00;99.90
19999;DHT22;10160;50.926;4.374;2023-06-26T10:46:56;25.00;99.90
19999;DHT22;10160;50.926;4.374;2023-06-26T10:49:30;25.00;99.90
19999;DHT22;10160;50.926;4.374;2023-06-26T10:52:00;24.90;99.90
19999;DHT22;10160;50.926;4.374;2023-06-26T10:54:29;25.30;99.90
19999;DHT22;10160;50.926;4.374;2023-06-26T10:56:56;24.90;99.90
19999;DHT22;10160;50.926;4.374;2023-06-26T10:59:26;24.50;99.90
19999;DHT22;10160;50.926;4.374;2023-06-26T11:02:04;24.80;99.90
19999;DHT22;10160;50.926;4.374;2023-06-26T11:04:42;25.60;99.90
19999;DHT22;10160;50.926;4.374;2023-06-26T11:07:25;26.00;99.90
19999;DHT22;10160;50.926;4.374;2023-06-26T11:12:40;25.90;99.90
19999;DHT22;10160;50.926;4.374;2023-06-26T11:15:10;25.90;99.90
19999;DHT22;10160;50.926;4.374;2023-06-26T11:17:37;26.20;99.90
19999;DHT22;10160;50.926;4.374;2023-06-26T11:20:08;25.60;99.90
19999;DHT22;10160;50.926;4.374;2023-06-26T11:22:38;25.50;99.90
19999;DHT22;10160;50.926;4.374;2023-06-26T11:25:05;25.20;99.90
19999;DHT22;10160;50.926;4.374;2023-06-26T11:30:06;25.10;99.90
19999;DHT22;10160;50.926;4.374;2023-06-26T11:32:32;25.00;99.90
19999;DHT22;10160;50.926;4.374;2023-06-26T11:34:59;25.30;99.90
19999;DHT22;10160;50.926;4.374;2023-06-26T11:37:25;25.80;99.90
19999;DHT22;10160;50.926;4.374;2023-06-26T11:39:51;26.10;99.90
19999;DHT22;10160;50.926;4.374;2023-06-26T11:42:18;26.00;99.90
19999;DHT22;10160;50.926;4.374;2023-06-26T11:44:44;26.20;99.90
19999;DHT22;10160;50.926;4.374;2023-06-26T11:47:17;26.10;99.90
19999;DHT22;10160;50.926;4.374;2023-06-26T11:49:47;26.00;99.90
19999;DHT22;10160;50.926;4.374;2023-06-26T11:52:16;26.00;99.90
19999;DHT22;10160;50.926;4.374;2023-06-26T11:54:43;25.40;99.90
19999;DHT22;10160;50.926;4.374;2023-06-26T11:57:14;25.20;99.90
19999;DHT22;10160;50.926;4.374;2023-06-26T11:59:40;25.10;99.90
19999;DHT22;10160;50.926;4.374;2023-06-26T12:02:07;25.60;99.90
19999;DHT22;10160;50.926;4.374;2023-06-26T12:04:40;26.10;99.90
19999;DHT22;10160;50.926;4.374;2023-06-26T12:07:08;26.30;99.90
19999;DHT22;10160;50.926;4.374;2023-06-26T12:09:39;26.50;99.90
19999;DHT22;10160;50.926;4.374;2023-06-26T12:12:07;26.50;99.90
19999;DHT22;10160;50.926;4.374;2023-06-26T12:14:33;26.80;99.90
19999;DHT22;10160;50.926;4.374;2023-06-26T12:17:12;26.90;99.90
19999;DHT22;10160;50.926;4.374;2023-06-26T12:19:42;26.80;99.90
19999;DHT22;10160;50.926;4.374;2023-06-26T12:22:09;26.80;99.90
19999;DHT22;10160;50.926;4.374;2023-06-26T12:24:37;26.80;99.90
19999;DHT22;10160;50.926;4.374;2023-06-26T12:27:13;26.40;99.90
19999;DHT22;10160;50.926;4.374;2023-06-26T12:29:40;26.00;99.90
19999;DHT22;10160;50.926;4.374;2023-06-26T12:32:10;26.00;99.90
19999;DHT22;10160;50.926;4.374;2023-06-26T12:34:38;25.90;99.90
19999;DHT22;10160;50.926;4.374;2023-06-26T12:37:06;25.80;99.90
19999;DHT22;10160;50.926;4.374;2023-06-26T12:39:53;25.80;99.90
19999;DHT22;10160;50.926;4.374;2023-06-26T12:42:24;26.30;99.90
19999;DHT22;10160;50.926;4.374;2023-06-26T12:44:50;26.60;99.90
19999;DHT22;10160;50.926;4.374;2023-06-26T12:47:17;26.20;99.90
19999;DHT22;10160;50.926;4.374;2023-06-26T12:49:45;26.20;99.90
19999;DHT22;10160;50.926;4.374;2023-06-26T12:52:15;26.10;99.90
19999;DHT22;10160;50.926;4.374;2023-06-26T12:54:42;26.40;99.90
19999;DHT22;10160;50.926;4.374;2023-06-26T12:57:09;26.50;99.90
19999;DHT22;10160;50.926;4.374;2023-06-26T12:59:38;26.60;99.90
19999;DHT22;10160;50.926;4.374;2023-06-26T13:02:04;26.10;99.90
19999;DHT22;10160;50.926;4.374;2023-06-26T13:04:30;25.80;99.90
19999;DHT22;10160;50.926;4.374;2023-06-26T13:06:56;25.50;99.90
19999;DHT22;10160;50.926;4.374;2023-06-26T13:09:23;25.30;99.90
19999;DHT22;10160;50.926;4.374;2023-06-26T13:11:53;25.10;99.90
19999;DHT22;10160;50.926;4.374;2023-06-26T13:14:22;24.80;99.90
19999;DHT22;10160;50.926;4.374;2023-06-26T13:16:48;24.80;99.90
19999;DHT22;10160;50.926;4.374;2023-06-26T13:19:13;24.80;99.90
19999;DHT22;10160;50.926;4.374;2023-06-26T13:21:39;25.10;99.90
19999;DHT22;10160;50.926;4.374;2023-06-26T13:24:05;25.70;99.90
19999;DHT22;10160;50.926;4.374;2023-06-26T13:26:31;25.80;99.90
19999;DHT22;10160;50.926;4.374;2023-06-26T13:28:57;25.90;99.90
19999;DHT22;10160;50.926;4.374;2023-06-26T13:31:23;25.80;99.90
19999;DHT22;10160;50.926;4.374;2023-06-26T13:33:49;25.50;99.90
19999;DHT22;10160;50.926;4.374;2023-06-26T13:36:18;25.60;99.90
19999;DHT22;10160;50.926;4.374;2023-06-26T13:38:44;25.60;99.90
19999;DHT22;10160;50.926;4.374;2023-06-26T13:41:10;25.90;99.90
19999;DHT22;10160;50.926;4.374;2023-06-26T13:43:35;26.10;99.90
19999;DHT22;10160;50.926;4.374;2023-06-26T13:46:01;26.00;99.90
19999;DHT22;10160;50.926;4.374;2023-06-26T13:48:28;26.60;99.90
19999;DHT22;10160;50.926;4.374;2023-06-26T13:50:54;26.60;99.90
19999;DHT22;10160;50.926;4.374;2023-06-26T13:53:22;26.70;99.90
19999;DHT22;10160;50.926;4.374;2023-06-26T13:55:48;26.80;99.90
19999;DHT22;10160;50.926;4.374;2023-06-26T13:58:14;26.80;99.90
19999;DHT22;10160;50.926;4.374;2023-06-26T14:00:40;26.80;99.90
19999;DHT22;10160;50.926;4.374;2023-06-26T14:03:06;27.20;99.90
19999;DHT22;10160;50.926;4.374;2023-06-26T14:05:36;27.30;99.90
19999;DHT22;10160;50.926;4.374;2023-06-26T14:08:06;26.90;99.90
19999;DHT22;10160;50.926;4.374;2023-06-26T14:10:33;26.70;99.90
19999;DHT22;10160;50.926;4.374;2023-06-26T14:12:59;26.70;99.90
19999;DHT22;10160;50.926;4.374;2023-06-26T14:15:25;26.50;99.90
19999;DHT22;10160;50.926;4.374;2023-06-26T14:17:51;26.40;99.90
19999;DHT22;10160;50.926;4.374;2023-06-26T14:20:17;26.20;99.90
19999;DHT22;10160;50.926;4.374;2023-06-26T14:22:45;26.10;99.90
19999;DHT22;10160;50.926;4.374;2023-06-26T14:25:11;25.70;99.90
19999;DHT22;10160;50.926;4.374;2023-06-26T14:27:40;25.60;99.90
19999;DHT22;10160;50.926;4.374;2023-06-26T14:30:07;25.60;99.90
19999;DHT22;10160;50.926;4.374;2023-06-26T14:32:33;25.20;99.90
19999;DHT22;10160;50.926;4.374;2023-06-26T14:34:59;25.10;99.90
19999;DHT22;10160;50.926;4.374;2023-06-26T14:37:25;25.00;99.90
19999;DHT22;10160;50.926;4.374;2023-06-26T14:39:51;25.20;99.90
19999;DHT22;10160;50.926;4.374;2023-06-26T14:42:17;25.50;99.90
19999;DHT22;10160;50.926;4.374;2023-06-26T14:44:43;25.90;99.90
19999;DHT22;10160;50.926;4.374;2023-06-26T14:47:12;26.00;99.90
19999;DHT22;10160;50.926;4.374;2023-06-26T14:49:38;26.10;99.90
19999;DHT22;10160;50.926;4.374;2023-06-26T14:52:04;26.10;99.90
19999;DHT22;10160;50.926;4.374;2023-06-26T14:54:30;26.10;99.90
19999;DHT22;10160;50.926;4.374;2023-06-26T14:56:55;25.50;99.90
19999;DHT22;10160;50.926;4.374;2023-06-26T14:59:21;25.20;99.90
19999;DHT22;10160;50.926;4.374;2023-06-26T15:01:46;24.90;99.90
19999;DHT22;10160;50.926;4.374;2023-06-26T15:04:15;24.80;99.90
19999;DHT22;10160;50.926;4.374;2023-06-26T15:06:41;24.90;99.90
19999;DHT22;10160;50.926;4.374;2023-06-26T15:09:06;25.00;99.90
19999;DHT22;10160;50.926;4.374;2023-06-26T15:11:34;25.10;99.90
19999;DHT22;10160;50.926;4.374;2023-06-26T15:14:00;25.30;99.90
19999;DHT22;10160;50.926;4.374;2023-06-26T15:16:26;25.30;99.90
19999;DHT22;10160;50.926;4.374;2023-06-26T15:18:52;25.40;99.90
19999;DHT22;10160;50.926;4.374;2023-06-26T15:21:17;25.50;99.90
19999;DHT22;10160;50.926;4.374;2023-06-26T15:23:44;25.40;99.90
19999;DHT22;10160;50.926;4.374;2023-06-26T15:26:10;25.20;99.90
19999;DHT22;10160;50.926;4.374;2023-06-26T15:28:35;24.80;99.90
19999;DHT22;10160;50.926;4.374;2023-06-26T15:31:01;24.80;99.90
19999;DHT22;10160;50.926;4.374;2023-06-26T15:33:27;24.90;99.90
19999;DHT22;10160;50.926;4.374;2023-06-26T15:35:53;24.90;99.90
19999;DHT22;10160;50.926;4.374;2023-06-26T15:38:19;25.10;99.90
19999;DHT22;10160;50.926;4.374;2023-06-26T15:40:44;24.90;99.90
19999;DHT22;10160;50.926;4.374;2023-06-26T15:43:10;25.10;99.90